| time (UTC) | temp C | wind direction | speed KPH | gust KPH | rain 1hr cm | rain 24hr cm | rain mn cm | humidity % | barometer mb |
| 20260509064003 | 12 | 183 | 3.2 | 11.3 | 0.00 | 0.64 | 0.00 | 90 | 1008.1 |
| 20260509063003 | 12 | 182 | 4.8 | 11.3 | 0.00 | 0.64 | 0.00 | 90 | 1008.2 |
| 20260509062003 | 12 | 196 | 4.8 | 11.3 | 0.00 | 0.64 | 0.00 | 90 | 1008.2 |
| 20260509061003 | 12 | 202 | 4.8 | 14.5 | 0.00 | 0.64 | 0.00 | 90 | 1008.4 |
| 20260509060004 | 12 | 198 | 4.8 | 11.3 | 0.00 | 0.64 | 0.00 | 90 | 1008.6 |
| 20260509055024 | 12 | 198 | 6.4 | 14.5 | 0.00 | 0.64 | 0.00 | 90 | 1008.8 |
| 20260509054003 | 12 | 185 | 4.8 | 9.7 | 0.00 | 0.64 | 0.00 | 90 | 1008.8 |
| 20260509053003 | 12 | 162 | 3.2 | 11.3 | 0.00 | 0.64 | 0.00 | 90 | 1008.8 |
| 20260509052003 | 12 | 188 | 3.2 | 8.0 | 0.00 | 0.64 | 0.00 | 90 | 1008.9 |
| 20260509051003 | 12 | 226 | 1.6 | 6.4 | 0.00 | 0.64 | 0.00 | 90 | 1008.9 |
| 20260509050025 | 12 | 216 | 3.2 | 8.0 | 0.00 | 0.64 | 0.00 | 90 | 1009.0 |
| 20260509045003 | 12 | 179 | 3.2 | 6.4 | 0.00 | 0.64 | 0.00 | 90 | 1008.9 |
| 20260509044003 | 12 | 191 | 1.6 | 6.4 | 0.00 | 0.64 | 0.00 | 90 | 1008.9 |
| 20260509043004 | 12 | 214 | 3.2 | 6.4 | 0.00 | 0.64 | 0.00 | 90 | 1009.0 |
| 20260509042004 | 12 | 178 | 1.6 | 6.4 | 0.00 | 0.64 | 0.00 | 90 | 1008.9 |
| 20260509041003 | 12 | 189 | 1.6 | 6.4 | 0.00 | 0.64 | 0.00 | 90 | 1008.9 |
| 20260509040004 | 12 | 226 | 1.6 | 4.8 | 0.00 | 0.64 | 0.00 | 90 | 1008.9 |
| 20260509035003 | 12 | 200 | 3.2 | 6.4 | 0.00 | 0.64 | 0.64 | 89 | 1008.8 |
| 20260509034024 | 12 | 186 | 1.6 | 6.4 | 0.00 | 0.64 | 0.64 | 89 | 1008.8 |
| 20260509033003 | 12 | 188 | 3.2 | 6.4 | 0.00 | 0.64 | 0.64 | 89 | 1008.8 |
| 20260509032003 | 12 | 158 | 3.2 | 11.3 | 0.00 | 0.64 | 0.64 | 88 | 1008.7 |
| 20260509031003 | 12 | 161 | 4.8 | 9.7 | 0.00 | 0.64 | 0.64 | 88 | 1008.8 |
| 20260509030003 | 12 | 163 | 3.2 | 8.0 | 0.00 | 0.64 | 0.64 | 87 | 1008.7 |
| 20260509025003 | 12 | 212 | 3.2 | 8.0 | 0.00 | 0.64 | 0.64 | 87 | 1008.9 |
| 20260509024003 | 12 | 211 | 4.8 | 8.0 | 0.00 | 0.64 | 0.64 | 87 | 1009.0 |
| 20260509023024 | 12 | 223 | 4.8 | 12.9 | 0.00 | 0.64 | 0.64 | 87 | 1009.0 |
| 20260509022003 | 13 | 222 | 8.0 | 16.1 | 0.00 | 0.64 | 0.64 | 87 | 1008.9 |
| 20260509021003 | 12 | 221 | 6.4 | 12.9 | 0.00 | 0.64 | 0.64 | 88 | 1009.0 |
| 20260509020024 | 12 | 213 | 8.0 | 16.1 | 0.00 | 0.64 | 0.64 | 88 | 1008.9 |
| 20260509015003 | 12 | 176 | 4.8 | 17.7 | 0.03 | 0.64 | 0.64 | 89 | 1008.8 |
| 20260509014003 | 12 | 201 | 3.2 | 8.0 | 0.03 | 0.64 | 0.64 | 89 | 1008.7 |
| 20260509013024 | 12 | 206 | 3.2 | 11.3 | 0.03 | 0.64 | 0.64 | 89 | 1008.7 |
| 20260509012003 | 12 | 206 | 4.8 | 11.3 | 0.03 | 0.64 | 0.64 | 89 | 1008.8 |
| 20260509011003 | 12 | 208 | 4.8 | 11.3 | 0.03 | 0.64 | 0.64 | 89 | 1008.8 |
| 20260509010003 | 12 | 183 | 4.8 | 14.5 | 0.03 | 0.64 | 0.64 | 89 | 1008.7 |
| 20260509005024 | 12 | 202 | 4.8 | 9.7 | 0.00 | 0.61 | 0.61 | 89 | 1008.8 |
| 20260509004003 | 12 | 207 | 4.8 | 11.3 | 0.03 | 0.61 | 0.61 | 89 | 1008.9 |
| 20260509003003 | 12 | 211 | 6.4 | 11.3 | 0.03 | 0.61 | 0.61 | 89 | 1008.9 |
| 20260509002003 | 12 | 193 | 6.4 | 17.7 | 0.03 | 0.61 | 0.61 | 89 | 1008.8 |
| 20260509001003 | 12 | 200 | 6.4 | 16.1 | 0.03 | 0.61 | 0.61 | 89 | 1008.8 |
| 20260509000004 | 12 | 204 | 8.0 | 19.3 | 0.03 | 0.61 | 0.61 | 89 | 1008.9 |
| 20260508235003 | 12 | 200 | 6.4 | 16.1 | 0.08 | 0.61 | 0.61 | 89 | 1009.1 |
| 20260508234003 | 12 | 201 | 4.8 | 9.7 | 0.10 | 0.58 | 0.58 | 90 | 1009.3 |
| 20260508233003 | 12 | 190 | 3.2 | 8.0 | 0.13 | 0.58 | 0.58 | 90 | 1009.0 |
| 20260508232003 | 12 | 197 | 3.2 | 8.0 | 0.15 | 0.58 | 0.58 | 90 | 1009.1 |
| 20260508231024 | 12 | 167 | 6.4 | 17.7 | 0.20 | 0.58 | 0.58 | 90 | 1009.1 |
| 20260508230003 | 12 | 158 | 6.4 | 14.5 | 0.20 | 0.58 | 0.58 | 90 | 1009.1 |
| 20260508225003 | 12 | 163 | 3.2 | 8.0 | 0.20 | 0.53 | 0.53 | 90 | 1009.2 |
| 20260508224003 | 12 | 164 | 1.6 | 4.8 | 0.20 | 0.48 | 0.48 | 90 | 1009.3 |
| 20260508223024 | 12 | 156 | 3.2 | 8.0 | 0.23 | 0.46 | 0.46 | 89 | 1009.2 |
| 20260508222003 | 12 | 159 | 1.6 | 6.4 | 0.25 | 0.43 | 0.43 | 89 | 1009.4 |
| 20260508221003 | 12 | 207 | 3.2 | 8.0 | 0.20 | 0.38 | 0.38 | 89 | 1009.5 |
| 20260508220024 | 12 | 219 | 1.6 | 6.4 | 0.25 | 0.38 | 0.38 | 88 | 1009.6 |
| 20260508215003 | 12 | 229 | 1.6 | 8.0 | 0.25 | 0.33 | 0.33 | 88 | 1009.6 |
| 20260508214003 | 12 | 261 | 1.6 | 4.8 | 0.23 | 0.28 | 0.28 | 88 | 1009.8 |
| 20260508213003 | 12 | 323 | 1.6 | 4.8 | 0.20 | 0.23 | 0.23 | 88 | 1009.7 |
| 20260508212003 | 12 | 337 | 0.0 | 3.2 | 0.18 | 0.18 | 0.18 | 87 | 1009.6 |
| 20260508211003 | 13 | 307 | 1.6 | 6.4 | 0.18 | 0.18 | 0.18 | 86 | 1009.7 |
| 20260508210003 | 13 | 274 | 3.2 | 12.9 | 0.13 | 0.13 | 0.15 | 85 | 1009.7 |
| 20260508205003 | 13 | 345 | 4.8 | 14.5 | 0.08 | 0.08 | 0.08 | 83 | 1009.8 |
| 20260508204003 | 14 | 344 | 4.8 | 12.9 | 0.05 | 0.05 | 0.05 | 81 | 1009.6 |
| 20260508203003 | 15 | 333 | 1.6 | 4.8 | 0.03 | 0.03 | 0.03 | 78 | 1009.7 |
| 20260508202003 | 16 | 318 | 1.6 | 6.4 | 0.00 | 0.00 | 0.00 | 72 | 1009.4 |
| 20260508201003 | 17 | 262 | 0.0 | 4.8 | 0.00 | 0.00 | 0.00 | 65 | 1009.3 |
| 20260508200003 | 16 | 249 | 3.2 | 8.0 | 0.00 | 0.00 | 0.00 | 64 | 1009.6 |
| 20260508195024 | 17 | 238 | 3.2 | 8.0 | 0.00 | 0.00 | 0.00 | 65 | 1009.7 |
| 20260508194003 | 17 | 231 | 3.2 | 6.4 | 0.00 | 0.00 | 0.00 | 65 | 1009.7 |
| 20260508193003 | 17 | 213 | 6.4 | 14.5 | 0.00 | 0.00 | 0.00 | 60 | 1009.9 |
| 20260508192003 | 17 | 211 | 6.4 | 12.9 | 0.00 | 0.00 | 0.00 | 60 | 1010.0 |
| 20260508191003 | 17 | 184 | 6.4 | 19.3 | 0.00 | 0.00 | 0.00 | 59 | 1010.1 |
| 20260508190003 | 17 | 182 | 8.0 | 19.3 | 0.00 | 0.00 | 0.00 | 59 | 1010.2 |
| 20260508185024 | 17 | 205 | 8.0 | 16.1 | 0.00 | 0.00 | 0.00 | 59 | 1010.3 |
| 20260508184003 | 17 | 176 | 8.0 | 17.7 | 0.00 | 0.00 | 0.00 | 60 | 1010.5 |
| 20260508183003 | 17 | 190 | 8.0 | 16.1 | 0.00 | 0.00 | 0.00 | 60 | 1010.6 |
| 20260508182003 | 17 | 194 | 8.0 | 20.9 | 0.00 | 0.00 | 0.00 | 61 | 1010.7 |
| 20260508181003 | 17 | 195 | 8.0 | 19.3 | 0.00 | 0.00 | 0.00 | 61 | 1010.8 |
| 20260508180003 | 16 | 187 | 6.4 | 19.3 | 0.00 | 0.00 | 0.00 | 59 | 1010.8 |
| 20260508175024 | 16 | 179 | 4.8 | 14.5 | 0.00 | 0.00 | 0.00 | 60 | 1010.8 |
| 20260508174024 | 16 | 168 | 6.4 | 17.7 | 0.00 | 0.00 | 0.00 | 59 | 1011.0 |
| 20260508173024 | 17 | 199 | 11.3 | 25.7 | 0.00 | 0.00 | 0.00 | 57 | 1011.0 |
| 20260508172024 | 17 | 210 | 11.3 | 27.4 | 0.00 | 0.00 | 0.00 | 56 | 1011.0 |
| 20260508171003 | 18 | 206 | 11.3 | 24.1 | 0.00 | 0.00 | 0.00 | 54 | 1011.1 |
| 20260508170024 | 18 | 189 | 9.7 | 27.4 | 0.00 | 0.00 | 0.00 | 55 | 1011.2 |
| 20260508165004 | 17 | 217 | 8.0 | 20.9 | 0.00 | 0.00 | 0.00 | 55 | 1011.5 |
| 20260508164003 | 17 | 221 | 12.9 | 29.0 | 0.00 | 0.00 | 0.00 | 54 | 1011.7 |
| 20260508163003 | 18 | 216 | 8.0 | 22.5 | 0.00 | 0.00 | 0.00 | 54 | 1011.8 |
| 20260508162003 | 17 | 229 | 9.7 | 22.5 | 0.00 | 0.00 | 0.00 | 56 | 1012.0 |
| 20260508161024 | 18 | 220 | 9.7 | 17.7 | 0.00 | 0.00 | 0.00 | 54 | 1012.2 |
| 20260508160024 | 17 | 219 | 9.7 | 24.1 | 0.00 | 0.00 | 0.00 | 60 | 1012.2 |
| 20260508155024 | 16 | 221 | 9.7 | 17.7 | 0.00 | 0.00 | 0.00 | 60 | 1012.3 |
| 20260508154003 | 16 | 221 | 8.0 | 19.3 | 0.00 | 0.00 | 0.00 | 57 | 1012.4 |
| 20260508153003 | 16 | 208 | 6.4 | 17.7 | 0.00 | 0.00 | 0.00 | 60 | 1012.3 |
| 20260508152003 | 16 | 196 | 6.4 | 20.9 | 0.00 | 0.00 | 0.00 | 58 | 1012.4 |
| 20260508151003 | 16 | 216 | 9.7 | 20.9 | 0.00 | 0.00 | 0.00 | 58 | 1012.4 |
| 20260508150003 | 16 | 229 | 11.3 | 24.1 | 0.00 | 0.00 | 0.00 | 59 | 1012.5 |
| 20260508145003 | 16 | 214 | 12.9 | 25.7 | 0.00 | 0.00 | 0.00 | 57 | 1012.5 |
| 20260508144003 | 15 | 217 | 11.3 | 24.1 | 0.00 | 0.00 | 0.00 | 60 | 1012.6 |
| 20260508143003 | 15 | 208 | 12.9 | 27.4 | 0.00 | 0.00 | 0.00 | 58 | 1012.8 |
| 20260508142003 | 15 | 223 | 11.3 | 22.5 | 0.00 | 0.00 | 0.00 | 60 | 1013.0 |
| 20260508141003 | 15 | 223 | 11.3 | 30.6 | 0.00 | 0.00 | 0.00 | 58 | 1012.9 |
| 20260508140003 | 14 | 213 | 8.0 | 16.1 | 0.00 | 0.00 | 0.00 | 60 | 1013.0 |
| 20260508135003 | 14 | 222 | 8.0 | 19.3 | 0.00 | 0.00 | 0.00 | 59 | 1013.1 |
| 20260508134003 | 14 | 232 | 6.4 | 14.5 | 0.00 | 0.00 | 0.00 | 59 | 1013.2 |
| 20260508133003 | 14 | 234 | 6.4 | 19.3 | 0.00 | 0.00 | 0.00 | 60 | 1013.2 |
| 20260508132003 | 14 | 222 | 9.7 | 20.9 | 0.00 | 0.00 | 0.00 | 61 | 1013.2 |
| 20260508131003 | 13 | 211 | 6.4 | 14.5 | 0.00 | 0.00 | 0.00 | 62 | 1013.4 |
| 20260508130003 | 13 | 231 | 4.8 | 14.5 | 0.00 | 0.00 | 0.00 | 62 | 1013.3 |
| 20260508125003 | 12 | 226 | 1.6 | 6.4 | 0.00 | 0.00 | 0.00 | 63 | 1013.3 |
| 20260508124003 | 12 | 244 | 3.2 | 9.7 | 0.00 | 0.00 | 0.00 | 64 | 1013.4 |
| 20260508123003 | 11 | 349 | 1.6 | 4.8 | 0.00 | 0.00 | 0.00 | 65 | 1013.5 |
| 20260508122003 | 10 | 0 | 0.0 | 0.0 | 0.00 | 0.00 | 0.00 | 67 | 1013.4 |
| 20260508121003 | 10 | 0 | 0.0 | 0.0 | 0.00 | 0.00 | 0.00 | 69 | 1013.1 |
| 20260508120024 | 10 | 0 | 0.0 | 0.0 | 0.00 | 0.00 | 0.00 | 73 | 1013.3 |
| 20260508115003 | 8 | 0 | 0.0 | 0.0 | 0.00 | 0.00 | 0.00 | 73 | 1013.3 |
| 20260508114003 | 8 | 0 | 0.0 | 0.0 | 0.00 | 0.00 | 0.00 | 73 | 1013.3 |
| 20260508113003 | 8 | 0 | 0.0 | 0.0 | 0.00 | 0.00 | 0.00 | 74 | 1013.2 |
| 20260508112003 | 7 | 0 | 0.0 | 0.0 | 0.00 | 0.00 | 0.00 | 75 | 1013.1 |
| 20260508111003 | 8 | 0 | 0.0 | 0.0 | 0.00 | 0.00 | 0.00 | 73 | 1013.2 |
| 20260508110003 | 8 | 0 | 0.0 | 0.0 | 0.00 | 0.00 | 0.00 | 69 | 1013.2 |
| 20260508105003 | 8 | 225 | 0.0 | 3.2 | 0.00 | 0.00 | 0.00 | 69 | 1013.1 |
| 20260508104003 | 8 | 354 | 3.2 | 6.4 | 0.00 | 0.00 | 0.00 | 67 | 1013.0 |
| 20260508103003 | 9 | 199 | 3.2 | 9.7 | 0.00 | 0.00 | 0.00 | 65 | 1012.9 |
| 20260508102004 | 9 | 186 | 1.6 | 6.4 | 0.00 | 0.00 | 0.00 | 66 | 1012.7 |
| 20260508101004 | 9 | 190 | 1.6 | 9.7 | 0.00 | 0.00 | 0.00 | 66 | 1012.8 |
| 20260508100004 | 10 | 188 | 1.6 | 9.7 | 0.00 | 0.00 | 0.00 | 66 | 1012.7 |
| 20260508095004 | 10 | 193 | 1.6 | 6.4 | 0.00 | 0.00 | 0.00 | 65 | 1012.8 |
| 20260508094025 | 10 | 187 | 3.2 | 9.7 | 0.00 | 0.00 | 0.00 | 64 | 1012.8 |
| 20260508093025 | 10 | 191 | 3.2 | 8.0 | 0.00 | 0.00 | 0.00 | 64 | 1012.8 |
| 20260508092004 | 10 | 193 | 3.2 | 11.3 | 0.00 | 0.00 | 0.00 | 63 | 1012.8 |
| 20260508091025 | 10 | 187 | 3.2 | 9.7 | 0.00 | 0.00 | 0.00 | 63 | 1012.8 |
| 20260508090004 | 10 | 193 | 3.2 | 8.0 | 0.00 | 0.00 | 0.00 | 62 | 1012.9 |
| 20260508085025 | 11 | 181 | 3.2 | 11.3 | 0.00 | 0.00 | 0.00 | 62 | 1013.0 |
| 20260508084004 | 11 | 185 | 3.2 | 9.7 | 0.00 | 0.00 | 0.00 | 61 | 1012.9 |
| 20260508083025 | 11 | 202 | 3.2 | 9.7 | 0.00 | 0.00 | 0.00 | 61 | 1013.0 |
| 20260508082004 | 11 | 210 | 3.2 | 11.3 | 0.00 | 0.00 | 0.00 | 60 | 1013.2 |
| 20260508081004 | 11 | 205 | 6.4 | 14.5 | 0.00 | 0.00 | 0.00 | 60 | 1013.2 |
| 20260508080004 | 11 | 213 | 6.4 | 16.1 | 0.00 | 0.00 | 0.00 | 60 | 1013.2 |
| 20260508075004 | 11 | 217 | 6.4 | 16.1 | 0.00 | 0.00 | 0.00 | 61 | 1013.4 |
| 20260508074025 | 11 | 221 | 8.0 | 16.1 | 0.00 | 0.00 | 0.00 | 62 | 1013.5 |
| 20260508073004 | 11 | 216 | 8.0 | 20.9 | 0.00 | 0.00 | 0.00 | 61 | 1013.3 |
| 20260508072004 | 11 | 215 | 8.0 | 19.3 | 0.00 | 0.00 | 0.00 | 60 | 1013.3 |
| 20260508071004 | 11 | 214 | 8.0 | 22.5 | 0.00 | 0.00 | 0.00 | 60 | 1013.4 |
| 20260508070025 | 11 | 215 | 9.7 | 19.3 | 0.00 | 0.00 | 0.00 | 60 | 1013.4 |
| 20260508065004 | 11 | 211 | 6.4 | 14.5 | 0.00 | 0.00 | 0.00 | 61 | 1013.3 |